sensor_id;sensor_type;location;lat;lon;timestamp;temperature;humidity
25564;DHT22;13453;47.994;8.790;2022-09-29T00:03:10;21.30;47.70
25564;DHT22;13453;47.994;8.790;2022-09-29T00:13:12;21.30;47.60
25564;DHT22;13453;47.994;8.790;2022-09-29T00:23:14;21.30;47.60
25564;DHT22;13453;47.994;8.790;2022-09-29T00:33:16;21.30;47.70
25564;DHT22;13453;47.994;8.790;2022-09-29T00:43:21;21.20;47.40
25564;DHT22;13453;47.994;8.790;2022-09-29T00:53:25;21.30;47.60
25564;DHT22;13453;47.994;8.790;2022-09-29T01:03:31;21.30;47.50
25564;DHT22;13453;47.994;8.790;2022-09-29T01:13:34;21.30;47.40
25564;DHT22;13453;47.994;8.790;2022-09-29T01:23:50;21.30;47.50
25564;DHT22;13453;47.994;8.790;2022-09-29T01:54:36;21.20;47.40
25564;DHT22;13453;47.994;8.790;2022-09-29T02:04:48;21.30;47.60
25564;DHT22;13453;47.994;8.790;2022-09-29T02:14:52;21.30;47.50
25564;DHT22;13453;47.994;8.790;2022-09-29T02:24:57;21.20;47.40
25564;DHT22;13453;47.994;8.790;2022-09-29T02:35:00;21.20;47.60
25564;DHT22;13453;47.994;8.790;2022-09-29T02:55:51;21.20;47.60
25564;DHT22;13453;47.994;8.790;2022-09-29T03:05:57;21.30;47.70
25564;DHT22;13453;47.994;8.790;2022-09-29T03:15:59;21.20;47.60
25564;DHT22;13453;47.994;8.790;2022-09-29T03:26:02;21.20;47.70
25564;DHT22;13453;47.994;8.790;2022-09-29T03:36:05;21.20;47.60
25564;DHT22;13453;47.994;8.790;2022-09-29T03:46:07;21.20;47.50
25564;DHT22;13453;47.994;8.790;2022-09-29T03:56:09;21.20;47.50
25564;DHT22;13453;47.994;8.790;2022-09-29T04:06:11;21.20;47.50
25564;DHT22;13453;47.994;8.790;2022-09-29T04:16:13;21.20;47.50
25564;DHT22;13453;47.994;8.790;2022-09-29T04:26:15;21.20;47.50
25564;DHT22;13453;47.994;8.790;2022-09-29T04:36:17;21.20;47.70
25564;DHT22;13453;47.994;8.790;2022-09-29T04:46:19;21.20;47.70
25564;DHT22;13453;47.994;8.790;2022-09-29T04:56:21;21.30;47.80
25564;DHT22;13453;47.994;8.790;2022-09-29T05:06:22;21.20;48.40
25564;DHT22;13453;47.994;8.790;2022-09-29T05:16:24;21.20;47.70
25564;DHT22;13453;47.994;8.790;2022-09-29T05:26:26;21.30;47.90
25564;DHT22;13453;47.994;8.790;2022-09-29T05:36:28;21.20;48.30
25564;DHT22;13453;47.994;8.790;2022-09-29T05:46:30;21.20;48.30
25564;DHT22;13453;47.994;8.790;2022-09-29T05:56:32;21.30;48.60
25564;DHT22;13453;47.994;8.790;2022-09-29T06:06:33;21.30;48.40
25564;DHT22;13453;47.994;8.790;2022-09-29T06:16:37;21.30;48.40
25564;DHT22;13453;47.994;8.790;2022-09-29T06:26:39;21.20;48.30
25564;DHT22;13453;47.994;8.790;2022-09-29T06:36:43;21.20;48.30
25564;DHT22;13453;47.994;8.790;2022-09-29T06:47:03;21.20;49.00
25564;DHT22;13453;47.994;8.790;2022-09-29T06:57:05;21.20;48.30
25564;DHT22;13453;47.994;8.790;2022-09-29T07:07:07;21.20;48.30
25564;DHT22;13453;47.994;8.790;2022-09-29T07:17:08;21.20;48.00
25564;DHT22;13453;47.994;8.790;2022-09-29T07:27:10;21.20;48.00
25564;DHT22;13453;47.994;8.790;2022-09-29T07:37:12;21.20;47.80
25564;DHT22;13453;47.994;8.790;2022-09-29T07:47:14;21.40;48.20
25564;DHT22;13453;47.994;8.790;2022-09-29T07:57:16;21.20;47.80
25564;DHT22;13453;47.994;8.790;2022-09-29T08:07:18;21.20;47.70
25564;DHT22;13453;47.994;8.790;2022-09-29T08:17:19;21.20;47.70
25564;DHT22;13453;47.994;8.790;2022-09-29T08:27:21;21.20;47.60
25564;DHT22;13453;47.994;8.790;2022-09-29T08:37:23;21.20;47.60
25564;DHT22;13453;47.994;8.790;2022-09-29T08:47:33;21.20;47.50
25564;DHT22;13453;47.994;8.790;2022-09-29T08:57:57;21.20;47.60
25564;DHT22;13453;47.994;8.790;2022-09-29T09:28:29;21.20;47.40
25564;DHT22;13453;47.994;8.790;2022-09-29T09:49:10;21.20;47.20
25564;DHT22;13453;47.994;8.790;2022-09-29T09:59:33;21.20;47.40
25564;DHT22;13453;47.994;8.790;2022-09-29T10:09:37;21.20;47.30
25564;DHT22;13453;47.994;8.790;2022-09-29T10:19:53;21.20;47.40
25564;DHT22;13453;47.994;8.790;2022-09-29T10:29:55;21.20;46.70
25564;DHT22;13453;47.994;8.790;2022-09-29T10:50:24;21.20;46.80
25564;DHT22;13453;47.994;8.790;2022-09-29T11:00:28;21.20;46.90
25564;DHT22;13453;47.994;8.790;2022-09-29T11:10:34;21.20;46.90
25564;DHT22;13453;47.994;8.790;2022-09-29T11:20:37;21.20;46.90
25564;DHT22;13453;47.994;8.790;2022-09-29T11:41:17;21.30;47.20
25564;DHT22;13453;47.994;8.790;2022-09-29T12:01:51;21.30;46.70
25564;DHT22;13453;47.994;8.790;2022-09-29T12:22:24;21.30;46.50
25564;DHT22;13453;47.994;8.790;2022-09-29T12:32:38;21.30;46.40
25564;DHT22;13453;47.994;8.790;2022-09-29T13:44:28;21.40;46.90
25564;DHT22;13453;47.994;8.790;2022-09-29T13:54:57;21.30;46.80
25564;DHT22;13453;47.994;8.790;2022-09-29T14:15:28;21.30;47.10
25564;DHT22;13453;47.994;8.790;2022-09-29T14:46:32;21.30;47.00
25564;DHT22;13453;47.994;8.790;2022-09-29T15:07:39;21.20;46.80
25564;DHT22;13453;47.994;8.790;2022-09-29T15:28:34;21.20;46.80
25564;DHT22;13453;47.994;8.790;2022-09-29T15:38:39;21.20;46.70
25564;DHT22;13453;47.994;8.790;2022-09-29T15:48:41;21.20;46.90
25564;DHT22;13453;47.994;8.790;2022-09-29T15:58:47;21.20;46.90
25564;DHT22;13453;47.994;8.790;2022-09-29T16:08:54;21.20;47.10
25564;DHT22;13453;47.994;8.790;2022-09-29T16:19:01;21.20;47.10
25564;DHT22;13453;47.994;8.790;2022-09-29T16:39:14;21.20;47.20
25564;DHT22;13453;47.994;8.790;2022-09-29T16:49:32;21.20;47.40
25564;DHT22;13453;47.994;8.790;2022-09-29T16:59:35;21.30;47.40
25564;DHT22;13453;47.994;8.790;2022-09-29T17:09:36;21.20;47.40
25564;DHT22;13453;47.994;8.790;2022-09-29T17:19:39;21.20;47.60
25564;DHT22;13453;47.994;8.790;2022-09-29T17:29:41;21.20;47.60
25564;DHT22;13453;47.994;8.790;2022-09-29T17:39:43;21.20;47.80
25564;DHT22;13453;47.994;8.790;2022-09-29T17:49:44;21.20;47.60
25564;DHT22;13453;47.994;8.790;2022-09-29T17:59:50;21.20;47.80
25564;DHT22;13453;47.994;8.790;2022-09-29T18:09:52;21.20;48.10
25564;DHT22;13453;47.994;8.790;2022-09-29T18:19:54;21.20;47.80
25564;DHT22;13453;47.994;8.790;2022-09-29T18:29:56;21.20;47.80
25564;DHT22;13453;47.994;8.790;2022-09-29T18:39:58;21.10;47.60
25564;DHT22;13453;47.994;8.790;2022-09-29T18:49:59;21.20;47.50
25564;DHT22;13453;47.994;8.790;2022-09-29T19:00:01;21.10;47.60
25564;DHT22;13453;47.994;8.790;2022-09-29T19:10:06;21.10;47.30
25564;DHT22;13453;47.994;8.790;2022-09-29T19:20:08;21.10;47.30
25564;DHT22;13453;47.994;8.790;2022-09-29T19:30:15;21.10;47.40
25564;DHT22;13453;47.994;8.790;2022-09-29T19:40:21;21.10;47.30
25564;DHT22;13453;47.994;8.790;2022-09-29T19:50:23;21.20;47.60
25564;DHT22;13453;47.994;8.790;2022-09-29T20:00:44;21.10;47.60
25564;DHT22;13453;47.994;8.790;2022-09-29T20:10:46;21.10;47.40
25564;DHT22;13453;47.994;8.790;2022-09-29T20:20:48;21.10;47.50
25564;DHT22;13453;47.994;8.790;2022-09-29T20:30:58;21.10;47.40
25564;DHT22;13453;47.994;8.790;2022-09-29T20:41:01;21.10;47.40
25564;DHT22;13453;47.994;8.790;2022-09-29T20:51:05;21.10;47.70
25564;DHT22;13453;47.994;8.790;2022-09-29T21:11:10;21.10;48.20
25564;DHT22;13453;47.994;8.790;2022-09-29T21:21:11;21.10;48.00
25564;DHT22;13453;47.994;8.790;2022-09-29T21:31:15;21.20;48.10
25564;DHT22;13453;47.994;8.790;2022-09-29T21:41:25;21.10;48.20
25564;DHT22;13453;47.994;8.790;2022-09-29T21:51:30;21.20;48.30
25564;DHT22;13453;47.994;8.790;2022-09-29T22:01:33;21.20;48.30
25564;DHT22;13453;47.994;8.790;2022-09-29T22:11:36;21.20;48.30
25564;DHT22;13453;47.994;8.790;2022-09-29T22:21:39;21.20;48.30
25564;DHT22;13453;47.994;8.790;2022-09-29T22:31:41;21.20;48.30
25564;DHT22;13453;47.994;8.790;2022-09-29T22:41:43;21.20;48.30
25564;DHT22;13453;47.994;8.790;2022-09-29T22:51:45;21.20;49.00
25564;DHT22;13453;47.994;8.790;2022-09-29T23:01:47;21.20;48.30
25564;DHT22;13453;47.994;8.790;2022-09-29T23:11:49;21.20;48.30
25564;DHT22;13453;47.994;8.790;2022-09-29T23:21:52;21.20;48.30
25564;DHT22;13453;47.994;8.790;2022-09-29T23:31:55;21.20;48.30
25564;DHT22;13453;47.994;8.790;2022-09-29T23:41:57;21.20;48.30
25564;DHT22;13453;47.994;8.790;2022-09-29T23:52:00;21.20;48.40
